Time;durP1;ratioP1;P1;durP2;ratioP2;P2;SDS_P1;SDS_P2;PMS_P1;PMS_P2;Temp;Humidity;BMP_temperature;BMP_pressure;BME280_temperature;BME280_humidity;BME280_pressure;Samples;Min_cycle;Max_cycle;Signal;HPM_P1;HPM_P2
2022/10/03 00:01:36;;;;;;;35.10;8.98;;;;;;;12.84;100.00;98497.19;4979640;28;20440;-59
2022/10/03 00:04:36;;;;;;;32.40;8.77;;;;;;;12.81;100.00;98502.56;4979631;28;20531;-60
2022/10/03 00:07:12;;;;;;;31.83;9.48;;;;;;;13.06;100.00;98512.00;4978752;28;20049;-59
2022/10/03 00:09:55;;;;;;;33.33;9.73;;;;;;;12.80;100.00;98510.50;4980161;28;20843;-60
2022/10/03 00:13:00;;;;;;;26.45;7.70;;;;;;;12.85;100.00;98519.84;4979202;28;20042;-60
2022/10/03 00:15:40;;;;;;;31.73;9.18;;;;;;;12.70;100.00;98520.47;4980112;28;20062;-59
2022/10/03 00:18:15;;;;;;;35.22;10.18;;;;;;;12.48;100.00;98524.00;4979796;28;20045;-61
2022/10/03 00:21:01;;;;;;;35.85;9.32;;;;;;;12.68;100.00;98522.31;4979107;28;20547;-61
2022/10/03 00:23:41;;;;;;;26.02;6.90;;;;;;;13.10;100.00;98524.91;4980337;28;20034;-60
2022/10/03 00:26:44;;;;;;;35.75;9.48;;;;;;;12.97;100.00;98528.09;4979010;28;20041;-58
2022/10/03 00:29:18;;;;;;;39.55;9.45;;;;;;;12.85;100.00;98539.94;4979713;28;20106;-60
2022/10/03 00:31:58;;;;;;;32.08;9.07;;;;;;;12.70;100.00;98536.19;4979332;28;20049;-58
2022/10/03 00:34:32;;;;;;;30.17;7.78;;;;;;;12.85;100.00;98542.56;4979992;28;20027;-58
2022/10/03 00:37:04;;;;;;;32.85;9.35;;;;;;;12.79;100.00;98546.28;4979177;28;20659;-60
2022/10/03 00:39:44;;;;;;;27.38;8.10;;;;;;;12.79;100.00;98546.28;4979718;28;20030;-60
2022/10/03 00:43:07;;;;;;;36.08;9.82;;;;;;;12.39;100.00;98542.66;4978864;28;20047;-60
2022/10/03 00:45:44;;;;;;;31.38;9.50;;;;;;;12.69;100.00;98550.19;4976890;28;20034;-60
2022/10/03 00:48:09;;;;;;;31.88;9.07;;;;;;;12.83;100.00;98547.88;4977590;28;20076;-59
2022/10/03 00:51:07;;;;;;;37.58;10.55;;;;;;;12.64;100.00;98550.38;4978660;28;20037;-59
2022/10/03 00:53:44;;;;;;;37.55;8.70;;;;;;;12.52;100.00;98548.25;4971438;28;20034;-59
2022/10/03 00:56:35;;;;;;;28.95;8.80;;;;;;;12.75;100.00;98555.16;4979024;28;20141;-61
2022/10/03 00:59:15;;;;;;;36.42;9.43;;;;;;;12.50;100.00;98552.72;4979133;28;20093;-59
2022/10/03 01:01:47;;;;;;;38.17;9.45;;;;;;;12.62;100.00;98556.59;4978909;28;20035;-60
2022/10/03 01:04:15;;;;;;;34.15;9.13;;;;;;;12.84;100.00;98562.63;4979512;28;20487;-58
2022/10/03 01:06:52;;;;;;;31.08;9.05;;;;;;;12.53;100.00;98555.19;4978660;28;20054;-62
2022/10/03 01:09:33;;;;;;;30.65;9.35;;;;;;;12.32;100.00;98551.66;4978737;28;20831;-61
2022/10/03 01:12:07;;;;;;;28.65;8.95;;;;;;;12.42;100.00;98558.22;4979247;28;20289;-58
2022/10/03 01:15:07;;;;;;;33.33;8.98;;;;;;;12.63;100.00;98566.16;4979421;28;20104;-59
2022/10/03 01:17:59;;;;;;;31.83;9.65;;;;;;;12.30;100.00;98564.81;4978489;28;20035;-61
2022/10/03 01:20:49;;;;;;;34.87;9.93;;;;;;;12.52;100.00;98562.19;4979068;28;20050;-60
2022/10/03 01:23:58;;;;;;;31.58;10.10;;;;;;;12.24;100.00;98559.81;4979277;28;20038;-60
2022/10/03 01:26:30;;;;;;;30.83;8.23;;;;;;;12.52;100.00;98559.56;4978836;28;20894;-59
2022/10/03 01:32:09;;;;;;;34.38;9.70;;;;;;;12.27;100.00;98571.91;4976680;28;20389;-61
2022/10/03 01:35:11;;;;;;;35.95;10.32;;;;;;;12.01;100.00;98571.16;4979293;28;20022;-59
2022/10/03 01:37:55;;;;;;;30.10;9.68;;;;;;;12.12;100.00;98568.13;4962419;28;20038;-59
2022/10/03 01:40:29;;;;;;;26.00;8.73;;;;;;;12.23;100.00;98572.94;4977996;28;20606;-59
2022/10/03 01:43:10;;;;;;;39.40;10.27;;;;;;;12.06;100.00;98582.28;4977475;28;20503;-59
2022/10/03 01:45:36;;;;;;;38.10;9.95;;;;;;;11.97;100.00;98576.56;4978178;28;20114;-59
2022/10/03 01:48:11;;;;;;;30.98;8.63;;;;;;;12.42;100.00;98575.69;4978640;28;20185;-59
2022/10/03 01:50:58;;;;;;;34.13;9.00;;;;;;;12.36;100.00;98579.41;4978126;28;20034;-60
2022/10/03 01:54:02;;;;;;;35.67;9.80;;;;;;;12.26;100.00;98583.28;4978388;28;20507;-59
2022/10/03 01:56:54;;;;;;;33.38;9.82;;;;;;;12.25;100.00;98581.59;4975631;28;20118;-61
2022/10/03 01:59:34;;;;;;;32.50;8.20;;;;;;;12.52;100.00;98587.50;4975274;28;20037;-60
2022/10/03 02:02:03;;;;;;;36.33;10.07;;;;;;;12.41;100.00;98584.47;4979622;28;20096;-60
2022/10/03 02:04:41;;;;;;;33.45;9.23;;;;;;;12.22;100.00;98581.69;4980545;28;20424;-59
2022/10/03 02:07:21;;;;;;;37.42;10.70;;;;;;;12.42;100.00;98573.91;4981427;28;20038;-60
2022/10/03 02:10:06;;;;;;;29.75;9.10;;;;;;;12.31;100.00;98586.56;4982429;28;20031;-59
2022/10/03 02:12:39;;;;;;;40.00;10.63;;;;;;;12.11;100.00;98580.34;4982403;28;20718;-58
2022/10/03 02:15:04;;;;;;;33.47;10.25;;;;;;;11.88;100.00;98578.56;4982116;28;20070;-59
2022/10/03 02:17:47;;;;;;;38.58;10.57;;;;;;;12.13;100.00;98578.53;4981920;28;20076;-59
2022/10/03 02:20:22;;;;;;;36.75;9.98;;;;;;;11.92;100.00;98587.19;4981619;28;20037;-60
2022/10/03 02:22:54;;;;;;;39.47;9.10;;;;;;;12.42;100.00;98587.00;4981835;28;20929;-59
2022/10/03 02:25:30;;;;;;;28.13;9.23;;;;;;;11.83;100.00;98590.94;4982080;28;20573;-61
2022/10/03 02:28:15;;;;;;;34.30;9.15;;;;;;;12.32;100.00;98588.28;4981923;28;20057;-58
2022/10/03 02:30:57;;;;;;;40.00;9.63;;;;;;;12.22;100.00;98592.16;4981191;28;20653;-61
2022/10/03 02:34:00;;;;;;;36.80;10.77;;;;;;;11.70;100.00;98605.38;4981962;28;20038;-59
2022/10/03 02:37:11;;;;;;;33.60;9.55;;;;;;;12.15;100.00;98607.25;4981403;28;20057;-58
2022/10/03 02:40:04;;;;;;;36.72;10.02;;;;;;;11.91;100.00;98612.47;4980218;28;20034;-61
2022/10/03 02:42:56;;;;;;;37.88;9.38;;;;;;;11.91;100.00;98622.06;4979952;28;20192;-58
2022/10/03 02:45:37;;;;;;;26.67;8.95;;;;;;;12.07;100.00;98617.13;4981412;28;20030;-58
2022/10/03 02:48:41;;;;;;;38.70;11.05;;;;;;;11.68;100.00;98622.88;4981400;28;20781;-59
2022/10/03 02:51:10;;;;;;;33.45;9.90;;;;;;;12.09;100.00;98629.25;4979251;28;20208;-58
2022/10/03 02:54:00;;;;;;;35.88;10.55;;;;;;;11.91;100.00;98629.91;4981469;28;21509;-60
2022/10/03 02:56:55;;;;;;;30.13;9.45;;;;;;;12.10;100.00;98638.78;4981241;28;20570;-58
2022/10/03 03:00:04;;;;;;;31.58;10.02;;;;;;;11.84;100.00;98646.72;4981258;28;20525;-59
2022/10/03 03:03:07;;;;;;;29.90;10.07;;;;;;;11.76;100.00;98652.19;4970649;28;20129;-58
2022/10/03 03:05:53;;;;;;;39.90;10.50;;;;;;;11.98;100.00;98652.31;4980981;28;20037;-59
2022/10/03 03:08:49;;;;;;;35.42;9.98;;;;;;;12.05;100.00;98655.56;4981742;28;20146;-59
2022/10/03 03:11:46;;;;;;;36.70;9.68;;;;;;;12.18;100.00;98642.88;4980957;28;20046;-59
2022/10/03 03:14:49;;;;;;;38.47;10.75;;;;;;;11.87;100.00;98654.41;4980867;28;20088;-58
2022/10/03 03:17:22;;;;;;;;;;;;;;;11.88;100.00;98656.97;4980984;28;20153;-58
2022/10/03 03:20:24;;;;;;;34.53;9.60;;;;;;;11.82;100.00;98653.72;4981135;28;19916;-59
2022/10/03 03:23:09;;;;;;;33.47;10.35;;;;;;;11.54;100.00;98654.69;4979637;28;20160;-59
2022/10/03 03:25:35;;;;;;;37.85;11.02;;;;;;;11.94;100.00;98656.78;4979659;28;20101;-59
2022/10/03 03:28:12;;;;;;;46.63;11.52;;;;;;;11.80;100.00;98666.00;4979100;28;20026;-59
2022/10/03 03:30:47;;;;;;;37.05;10.38;;;;;;;11.85;100.00;98667.53;4978224;28;20053;-59
2022/10/03 03:33:22;;;;;;;37.45;11.00;;;;;;;11.58;100.00;98675.44;4979068;28;20746;-59
2022/10/03 03:36:26;;;;;;;32.63;9.00;;;;;;;11.85;100.00;98674.53;4980212;28;20046;-59
2022/10/03 03:39:12;;;;;;;57.83;13.15;;;;;;;11.89;100.00;98678.75;4936932;29;20047;-60
2022/10/03 03:42:07;;;;;;;34.15;10.45;;;;;;;11.92;100.00;98683.91;4974347;28;20130;-59
2022/10/03 03:44:54;;;;;;;31.60;10.13;;;;;;;11.99;100.00;98679.31;4978791;28;20031;-59
2022/10/03 03:47:42;;;;;;;34.20;9.70;;;;;;;12.03;100.00;98689.59;4978986;28;20073;-59
2022/10/03 03:50:29;;;;;;;35.17;10.85;;;;;;;12.13;100.00;98693.59;4978305;28;20061;-61
2022/10/03 03:53:22;;;;;;;42.50;9.93;;;;;;;11.97;100.00;98682.00;4980039;28;20030;-59
2022/10/03 03:55:59;;;;;;;34.30;10.75;;;;;;;11.64;100.00;98689.22;4979861;28;20133;-61
2022/10/03 03:58:40;;;;;;;35.80;10.15;;;;;;;12.09;100.00;98686.78;4980496;28;20024;-59
2022/10/03 04:01:14;;;;;;;30.73;9.40;;;;;;;11.81;100.00;98686.00;4979635;28;20074;-62
2022/10/03 04:03:50;;;;;;;32.25;8.48;;;;;;;12.11;100.00;98684.97;4980126;28;20079;-58
2022/10/03 04:06:39;;;;;;;34.40;10.07;;;;;;;11.35;100.00;98689.28;4979530;28;20076;-59
2022/10/03 04:09:31;;;;;;;38.50;11.45;;;;;;;11.60;100.00;98693.69;4980143;28;20030;-59
2022/10/03 04:12:16;;;;;;;44.70;10.83;;;;;;;11.59;100.00;98686.75;4967622;28;20628;-59
2022/10/03 04:15:16;;;;;;;33.53;9.25;;;;;;;11.89;100.00;98684.84;4977495;28;20296;-59
2022/10/03 04:21:26;;;;;;;37.30;10.20;;;;;;;11.65;100.00;98680.47;4978853;28;20044;-61
2022/10/03 04:23:57;;;;;;;33.60;10.38;;;;;;;11.69;100.00;98688.16;4979453;28;20057;-59
2022/10/03 04:26:50;;;;;;;37.25;9.88;;;;;;;11.69;100.00;98685.53;4979913;28;20042;-59
2022/10/03 04:29:47;;;;;;;34.47;9.82;;;;;;;11.63;100.00;98693.56;4979787;28;20045;-60
2022/10/03 04:32:38;;;;;;;37.08;10.60;;;;;;;11.67;100.00;98684.75;4978883;28;21070;-59
2022/10/03 04:35:23;;;;;;;42.03;10.68;;;;;;;11.24;100.00;98688.78;4979850;28;20388;-59
2022/10/03 04:38:10;;;;;;;41.40;10.38;;;;;;;11.98;100.00;98688.06;4979768;28;20424;-60
2022/10/03 04:40:58;;;;;;;33.33;9.55;;;;;;;11.35;100.00;98684.06;4978942;28;20474;-59
2022/10/03 04:43:42;;;;;;;39.28;10.40;;;;;;;11.77;100.00;98688.72;4979681;28;20034;-59
2022/10/03 04:46:26;;;;;;;35.35;10.40;;;;;;;11.33;100.00;98696.31;4978984;28;20038;-59
2022/10/03 04:49:11;;;;;;;46.47;11.30;;;;;;;11.64;100.00;98689.22;4979171;28;20034;-58
2022/10/03 04:51:48;;;;;;;35.00;10.32;;;;;;;11.46;100.00;98685.47;4978448;28;20657;-58
2022/10/03 04:54:49;;;;;;;32.03;9.35;;;;;;;11.57;100.00;98683.34;4979291;28;20590;-58
2022/10/03 04:57:31;;;;;;;35.83;9.88;;;;;;;11.48;100.00;98691.50;4977909;28;20562;-58
2022/10/03 05:00:18;;;;;;;33.00;9.50;;;;;;;11.75;100.00;98693.16;4978625;28;20030;-62
2022/10/03 05:02:56;;;;;;;37.40;10.13;;;;;;;11.58;100.00;98692.91;4979367;28;20053;-58
2022/10/03 05:05:47;;;;;;;33.72;9.85;;;;;;;11.47;100.00;98697.59;4977265;28;20042;-60
2022/10/03 05:08:38;;;;;;;32.13;9.25;;;;;;;11.91;100.00;98692.63;4979341;28;20026;-59
2022/10/03 05:11:08;;;;;;;31.58;9.02;;;;;;;11.62;100.00;98691.88;4978343;28;20503;-58
2022/10/03 05:14:07;;;;;;;38.80;10.75;;;;;;;11.69;100.00;98688.16;4979199;28;20030;-59
2022/10/03 05:16:39;;;;;;;31.05;8.77;;;;;;;11.44;100.00;98688.13;4979266;28;20038;-58
2022/10/03 05:19:45;;;;;;;32.00;9.45;;;;;;;11.93;100.00;98693.47;4979260;28;20034;-60
2022/10/03 05:22:25;;;;;;;33.38;9.43;;;;;;;11.40;100.00;98701.34;4978458;28;20034;-59
2022/10/03 05:25:09;;;;;;;45.35;10.73;;;;;;;11.65;100.00;98702.25;4979502;28;20080;-60
2022/10/03 05:27:50;;;;;;;39.15;10.05;;;;;;;11.61;100.00;98705.84;4979359;28;20791;-62
2022/10/03 05:30:42;;;;;;;34.65;10.00;;;;;;;11.69;100.00;98703.84;4977870;28;20136;-58
2022/10/03 05:33:21;;;;;;;37.63;9.55;;;;;;;11.91;100.00;98716.16;4977678;28;20069;-61
2022/10/03 05:36:01;;;;;;;37.80;9.27;;;;;;;11.77;100.00;98712.25;4980024;28;20039;-59
2022/10/03 05:39:01;;;;;;;39.78;9.98;;;;;;;11.71;100.00;98716.84;4980846;28;20137;-58
2022/10/03 05:41:34;;;;;;;33.78;9.50;;;;;;;11.81;100.00;98717.38;4982313;28;20042;-59
2022/10/03 05:43:59;;;;;;;31.67;9.15;;;;;;;11.72;100.00;98711.53;4982961;28;20023;-58
2022/10/03 05:46:49;;;;;;;36.65;9.77;;;;;;;11.50;100.00;98723.63;4982442;28;20101;-58
2022/10/03 05:49:47;;;;;;;40.15;9.82;;;;;;;11.69;100.00;98729.97;4981780;28;20026;-62
2022/10/03 05:52:15;;;;;;;40.30;9.90;;;;;;;11.52;100.00;98722.69;4981861;28;20053;-59
2022/10/03 05:54:59;;;;;;;31.60;8.93;;;;;;;11.50;100.00;98727.09;4982765;28;20102;-59
2022/10/03 05:57:34;;;;;;;38.97;9.77;;;;;;;11.62;100.00;98733.69;4981608;28;20746;-61
2022/10/03 06:00:17;;;;;;;33.40;8.65;;;;;;;11.62;100.00;98736.31;4982073;28;20117;-60
2022/10/03 06:02:54;;;;;;;34.92;9.02;;;;;;;11.61;100.00;98734.59;4982408;28;20562;-59
2022/10/03 06:05:57;;;;;;;40.20;9.55;;;;;;;11.53;100.00;98741.84;4981678;28;20038;-58
2022/10/03 06:08:23;;;;;;;45.03;10.10;;;;;;;11.95;100.00;98743.94;4982059;28;20034;-58
2022/10/03 06:10:52;;;;;;;34.10;9.30;;;;;;;11.83;100.00;98745.16;4981580;28;20093;-59
2022/10/03 06:13:36;;;;;;;34.67;9.05;;;;;;;11.88;100.00;98760.72;4982046;28;20034;-59
2022/10/03 06:16:05;;;;;;;33.25;9.13;;;;;;;11.79;100.00;98750.56;4981698;28;20566;-58
2022/10/03 06:18:36;;;;;;;41.30;9.27;;;;;;;11.77;100.00;98756.69;4981907;28;20034;-58
2022/10/03 06:21:07;;;;;;;38.17;9.52;;;;;;;11.70;100.00;98759.56;4981180;28;20038;-58
2022/10/03 06:24:12;;;;;;;38.17;9.48;;;;;;;12.02;100.00;98766.34;4981355;28;20549;-58
2022/10/03 06:27:04;;;;;;;35.38;9.50;;;;;;;11.98;100.00;98756.88;4981561;28;20041;-58
2022/10/03 06:30:11;;;;;;;33.72;8.70;;;;;;;11.88;100.00;98763.31;4981464;28;20607;-59
2022/10/03 06:33:28;;;;;;;36.65;10.18;;;;;;;12.07;100.00;98763.56;4981391;28;20042;-59
2022/10/03 06:36:09;;;;;;;36.25;9.73;;;;;;;12.07;100.00;98772.25;4963292;28;20639;-59
2022/10/03 06:39:11;;;;;;;40.80;9.88;;;;;;;11.98;100.00;98776.94;4981599;28;20037;-59
2022/10/03 06:42:06;;;;;;;32.22;8.93;;;;;;;12.12;100.00;98770.34;4981390;28;20121;-59
2022/10/03 06:44:34;;;;;;;38.50;9.32;;;;;;;12.38;100.00;98781.63;4977934;28;20817;-59
2022/10/03 06:47:23;;;;;;;37.35;9.18;;;;;;;12.43;100.00;98776.25;4979179;28;20046;-58
2022/10/03 06:50:26;;;;;;;40.63;9.70;;;;;;;12.26;100.00;98782.06;4980412;28;20027;-60
2022/10/03 06:52:51;;;;;;;41.70;10.00;;;;;;;12.29;100.00;98781.97;4981023;28;20065;-59
2022/10/03 06:55:41;;;;;;;38.85;9.88;;;;;;;12.13;100.00;98782.53;4980337;28;20109;-58
2022/10/03 06:58:51;;;;;;;39.03;9.82;;;;;;;12.23;100.00;98787.44;4981111;28;20030;-59
2022/10/03 07:01:32;;;;;;;34.45;8.73;;;;;;;12.78;100.00;98785.41;4980191;28;20072;-58
2022/10/03 07:04:32;;;;;;;35.22;9.15;;;;;;;12.49;100.00;98782.09;4981060;28;20038;-58
2022/10/03 07:07:09;;;;;;;45.30;9.57;;;;;;;12.75;100.00;98787.28;4976835;28;20477;-61
2022/10/03 07:09:59;;;;;;;26.65;7.57;;;;;;;12.38;100.00;98792.09;4979223;28;20396;-59
2022/10/03 07:12:46;;;;;;;28.65;7.75;;;;;;;12.42;100.00;98793.69;4980507;28;20118;-59
2022/10/03 07:15:27;;;;;;;34.88;8.63;;;;;;;12.65;100.00;98778.94;4980519;28;20034;-59
2022/10/03 07:18:37;;;;;;;30.50;7.95;;;;;;;12.65;100.00;98789.41;4981167;28;20042;-60
2022/10/03 07:21:02;;;;;;;35.85;8.32;;;;;;;12.90;100.00;98798.06;4980690;28;20113;-59
2022/10/03 07:23:39;;;;;;;38.30;8.43;;;;;;;12.58;100.00;98783.53;4978739;28;20982;-61
2022/10/03 07:26:32;;;;;;;32.63;7.82;;;;;;;13.00;100.00;98801.19;4977943;28;20789;-59
2022/10/03 07:29:13;;;;;;;39.03;8.80;;;;;;;13.12;100.00;98797.22;4977809;28;20065;-61
2022/10/03 07:32:05;;;;;;;39.72;8.32;;;;;;;13.06;100.00;98802.69;4978396;28;20125;-60
2022/10/03 07:34:36;;;;;;;;;;;;;;;16.70;100.00;98821.31;4980504;28;20065;-59
2022/10/03 07:40:23;;;;;;;23.45;5.93;;;;;;;15.98;100.00;98842.50;4980048;28;20132;-59
2022/10/03 07:43:02;;;;;;;27.55;6.55;;;;;;;15.90;100.00;98851.69;4980446;28;20038;-59
2022/10/03 07:45:39;;;;;;;23.58;6.13;;;;;;;16.00;100.00;98859.06;4978992;28;20043;-59
2022/10/03 07:48:28;;;;;;;25.48;6.80;;;;;;;15.63;100.00;98854.72;4976829;28;20085;-59
2022/10/03 07:51:20;;;;;;;24.92;6.35;;;;;;;15.37;100.00;98863.84;4978393;28;20046;-59
2022/10/03 07:54:33;;;;;;;26.98;6.50;;;;;;;16.26;100.00;98864.78;4979938;28;20571;-60
2022/10/03 07:57:11;;;;;;;;;;;;;;;14.92;100.00;98867.66;4979658;28;20038;-62
2022/10/03 07:59:57;;;;;;;26.75;5.85;;;;;;;15.02;100.00;98869.78;4979030;28;19961;-61
2022/10/03 08:02:49;;;;;;;22.88;5.85;;;;;;;18.24;100.00;98876.97;4979617;28;20432;-59
2022/10/03 08:05:42;;;;;;;23.57;6.17;;;;;;;16.30;100.00;98874.25;4979004;28;20054;-59
2022/10/03 08:08:49;;;;;;;24.33;6.10;;;;;;;15.10;100.00;98872.06;4980401;28;20281;-59
2022/10/03 08:11:51;;;;;;;23.42;6.22;;;;;;;16.40;100.00;98884.34;4978410;28;20451;-59
2022/10/03 08:14:19;;;;;;;;;;;;;;;15.96;100.00;98878.56;4979636;28;20232;-59
2022/10/03 08:17:23;;;;;;;32.30;6.45;;;;;;;15.46;100.00;98883.56;4976866;28;20483;-60
2022/10/03 08:20:00;;;;;;;30.92;6.70;;;;;;;14.65;100.00;98875.84;4977140;28;20488;-60
2022/10/03 08:23:30;;;;;;;23.55;6.10;;;;;;;14.69;100.00;98876.56;4977681;28;20054;-59
2022/10/03 08:26:08;;;;;;;18.85;5.25;;;;;;;15.34;100.00;98874.50;4928720;28;20039;-59
2022/10/03 08:28:58;;;;;;;21.92;5.63;;;;;;;15.79;100.00;98870.66;4979414;28;20290;-59
2022/10/03 08:32:06;;;;;;;21.08;5.43;;;;;;;16.50;100.00;98877.66;4978827;28;20041;-58
2022/10/03 08:35:10;;;;;;;22.10;5.43;;;;;;;15.81;100.00;98881.94;4979183;28;20022;-61
2022/10/03 08:37:54;;;;;;;23.30;5.45;;;;;;;15.16;100.00;98882.31;4976636;28;20082;-58
2022/10/03 08:40:28;;;;;;;26.35;5.95;;;;;;;15.75;100.00;98884.84;4977832;28;20030;-57
2022/10/03 08:43:31;;;;;;;21.98;5.70;;;;;;;16.12;100.00;98883.06;4979035;28;20026;-58
2022/10/03 08:46:21;;;;;;;32.40;6.60;;;;;;;16.70;100.00;98877.47;4975261;28;20066;-59
2022/10/03 08:49:24;;;;;;;23.10;5.70;;;;;;;15.84;100.00;98883.56;4977932;28;20033;-57
2022/10/03 08:51:57;;;;;;;30.00;6.32;;;;;;;15.58;100.00;98881.22;4975625;28;20122;-58
2022/10/03 08:54:44;;;;;;;25.73;5.65;;;;;;;16.53;100.00;98882.78;4978306;28;20022;-56
2022/10/03 08:57:54;;;;;;;20.20;5.03;;;;;;;18.27;100.00;98892.66;4972208;28;20047;-56
2022/10/03 09:00:32;;;;;;;16.15;4.38;;;;;;;18.00;100.00;98888.97;4978578;28;20096;-55
2022/10/03 09:03:32;;;;;;;16.70;4.30;;;;;;;18.72;100.00;98889.16;4980280;28;20030;-58
2022/10/03 09:06:08;;;;;;;20.92;5.13;;;;;;;18.57;100.00;98883.84;4980065;28;20069;-58
2022/10/03 09:08:52;;;;;;;18.25;3.88;;;;;;;17.17;100.00;98886.47;4979992;28;20096;-56
2022/10/03 09:11:37;;;;;;;17.95;4.05;;;;;;;17.82;100.00;98885.53;4979845;28;20034;-58
2022/10/03 09:14:37;;;;;;;20.95;4.10;;;;;;;16.85;100.00;98880.25;4980135;28;20484;-59
2022/10/03 09:17:23;;;;;;;17.70;4.00;;;;;;;17.56;100.00;98873.81;4979246;28;20042;-59
2022/10/03 09:19:51;;;;;;;19.27;4.03;;;;;;;16.55;100.00;98873.84;4948719;28;20053;-59
2022/10/03 09:22:50;;;;;;;16.95;3.85;;;;;;;17.64;100.00;98883.00;4978764;28;20210;-57
2022/10/03 09:25:23;;;;;;;18.08;3.50;;;;;;;19.09;100.00;98884.31;4979741;28;20030;-58
2022/10/03 09:28:11;;;;;;;21.00;4.10;;;;;;;19.11;100.00;98885.88;4979637;28;20105;-57
2022/10/03 09:31:08;;;;;;;20.50;3.92;;;;;;;19.82;100.00;98890.25;4978341;28;20523;-58
2022/10/03 09:34:20;;;;;;;15.75;3.63;;;;;;;19.27;100.00;98891.09;4978695;28;20788;-58
2022/10/03 09:37:10;;;;;;;15.38;3.25;;;;;;;18.46;100.00;98891.56;4935603;28;20046;-57
2022/10/03 09:40:03;;;;;;;15.32;3.33;;;;;;;18.59;100.00;98892.53;4979374;28;20037;-57
2022/10/03 09:42:58;;;;;;;16.75;3.58;;;;;;;18.77;100.00;98895.03;4979386;28;20381;-57
2022/10/03 09:46:01;;;;;;;15.13;3.60;;;;;;;18.58;100.00;98890.84;4962508;28;20157;-59
2022/10/03 09:49:00;;;;;;;14.43;3.35;;;;;;;18.21;100.00;98887.69;4980003;28;20050;-58
2022/10/03 09:51:57;;;;;;;16.15;3.25;;;;;;;18.16;100.00;98889.78;4979253;28;20034;-57
2022/10/03 09:54:50;;;;;;;20.40;4.03;;;;;;;17.51;100.00;98877.53;4978966;28;20043;-57
2022/10/03 09:57:21;;;;;;;17.30;3.72;;;;;;;18.23;100.00;98884.97;4978264;28;20038;-59
2022/10/03 10:00:20;;;;;;;16.90;3.77;;;;;;;17.79;100.00;98881.31;4978635;28;20084;-59
2022/10/03 10:02:52;;;;;;;19.27;3.65;;;;;;;17.77;100.00;98880.50;4978395;28;20165;-58
2022/10/03 10:05:29;;;;;;;16.55;3.60;;;;;;;17.56;100.00;98879.09;4978443;28;20416;-56
2022/10/03 10:08:01;;;;;;;31.30;14.00;;;;;;;18.19;100.00;98876.38;4979643;28;20030;-57
2022/10/03 10:10:26;;;;;;;14.43;3.30;;;;;;;17.85;100.00;98880.13;4978258;28;20046;-59
2022/10/03 10:13:17;;;;;;;15.32;3.50;;;;;;;17.79;100.00;98883.94;4978247;28;20045;-56
2022/10/03 10:15:45;;;;;;;22.08;4.38;;;;;;;17.56;100.00;98889.66;4978446;28;20145;-58
2022/10/03 10:18:39;;;;;;;17.77;3.53;;;;;;;17.42;100.00;98883.31;4979272;28;20403;-57
2022/10/03 10:21:34;;;;;;;19.23;3.58;;;;;;;16.88;100.00;98888.03;4978906;28;20038;-57
2022/10/03 10:24:24;;;;;;;15.50;3.50;;;;;;;16.60;100.00;98881.53;4982927;28;20077;-58
2022/10/03 10:27:08;;;;;;;20.50;3.95;;;;;;;17.22;100.00;98881.81;4981412;28;20789;-57
2022/10/03 10:29:40;;;;;;;28.33;4.50;;;;;;;17.45;100.00;98883.16;4982125;28;20034;-56
2022/10/03 10:32:36;;;;;;;20.17;3.78;;;;;;;17.53;100.00;98874.81;4982183;28;20046;-57
2022/10/03 10:35:27;;;;;;;19.67;3.63;;;;;;;17.56;100.00;98874.66;4982912;28;20149;-58
2022/10/03 10:38:17;;;;;;;25.67;4.63;;;;;;;17.44;100.00;98876.22;4977653;28;20047;-57
2022/10/03 10:41:17;;;;;;;19.48;3.63;;;;;;;17.67;100.00;98871.44;4981050;28;20052;-57
2022/10/03 10:44:01;;;;;;;23.92;3.70;;;;;;;17.22;100.00;98871.25;4982369;28;20027;-58
2022/10/03 10:47:08;;;;;;;14.85;3.30;;;;;;;16.89;100.00;98879.16;4982176;28;20034;-58
2022/10/03 10:49:52;;;;;;;15.73;3.45;;;;;;;16.85;100.00;98869.72;4982552;28;20023;-57
2022/10/03 10:52:45;;;;;;;18.92;3.67;;;;;;;15.85;100.00;98880.88;4981785;28;20034;-57
2022/10/03 10:55:32;;;;;;;25.70;4.40;;;;;;;15.83;100.00;98877.47;4979424;28;20042;-57
2022/10/03 10:58:16;;;;;;;25.83;4.40;;;;;;;16.83;100.00;98879.50;4979521;28;20092;-57
2022/10/03 11:01:03;;;;;;;19.65;3.67;;;;;;;16.80;100.00;98879.63;4979461;28;20578;-57
2022/10/03 11:03:52;;;;;;;21.77;3.45;;;;;;;17.26;100.00;98878.06;4982038;28;20734;-58
2022/10/03 11:06:46;;;;;;;27.98;4.00;;;;;;;16.83;100.00;98874.22;4981485;28;20046;-57
2022/10/03 11:09:36;;;;;;;22.20;4.10;;;;;;;16.25;100.00;98878.91;4981887;28;20037;-57
2022/10/03 11:12:23;;;;;;;23.23;4.03;;;;;;;16.49;100.00;98871.53;4981037;28;20954;-58
2022/10/03 11:15:07;;;;;;;15.57;3.35;;;;;;;16.89;100.00;98872.13;4979885;28;20446;-59
2022/10/03 11:17:38;;;;;;;21.30;4.03;;;;;;;17.22;100.00;98871.25;4980972;28;20062;-59
2022/10/03 11:20:19;;;;;;;20.90;3.53;;;;;;;17.52;100.00;98879.25;4981542;28;20033;-60
2022/10/03 11:23:21;;;;;;;16.13;3.35;;;;;;;17.72;100.00;98874.66;4981950;28;20081;-59
2022/10/03 11:26:04;;;;;;;18.17;3.80;;;;;;;17.12;100.00;98876.16;4981597;28;20444;-59
2022/10/03 11:29:00;;;;;;;22.20;4.28;;;;;;;17.81;100.00;98868.88;4979223;28;20312;-57
2022/10/03 11:32:07;;;;;;;16.52;3.22;;;;;;;16.45;100.00;98870.00;4980293;28;20423;-57
2022/10/03 11:34:57;;;;;;;18.17;3.50;;;;;;;17.20;100.00;98872.25;4981711;28;20901;-58
2022/10/03 11:37:39;;;;;;;20.60;3.90;;;;;;;16.56;100.00;98869.44;4980374;28;20046;-57
2022/10/03 11:40:18;;;;;;;19.67;3.90;;;;;;;16.49;100.00;98879.44;4980903;28;20089;-57
2022/10/03 11:43:15;;;;;;;19.02;3.53;;;;;;;16.44;100.00;98877.97;4981893;28;20033;-56
2022/10/03 11:45:54;;;;;;;23.05;3.58;;;;;;;17.08;100.00;98881.69;4980851;28;20590;-56
2022/10/03 11:48:37;;;;;;;17.77;3.60;;;;;;;17.04;100.00;98877.50;4981888;28;20300;-56
2022/10/03 11:51:18;;;;;;;18.65;3.38;;;;;;;16.91;100.00;98877.31;4980578;28;20045;-56
2022/10/03 11:54:05;;;;;;;24.83;4.35;;;;;;;16.70;100.00;98876.63;4981360;28;20110;-57
2022/10/03 11:56:40;;;;;;;15.35;3.10;;;;;;;16.72;100.00;98872.97;4980976;28;20042;-58
2022/10/03 11:59:21;;;;;;;19.00;3.25;;;;;;;17.00;100.00;98868.06;4980613;28;20089;-57
2022/10/03 12:02:02;;;;;;;37.30;11.45;;;;;;;16.49;100.00;98865.44;4980944;28;20516;-56
2022/10/03 12:05:04;;;;;;;17.50;3.50;;;;;;;16.65;100.00;98862.84;4981305;28;20072;-56
2022/10/03 12:10:59;;;;;;;17.27;4.00;;;;;;;16.91;100.00;98866.78;4980485;28;20698;-56
2022/10/03 12:13:49;;;;;;;21.00;4.03;;;;;;;16.90;100.00;98854.53;4980687;28;20100;-57
2022/10/03 12:16:26;;;;;;;21.77;4.00;;;;;;;16.85;100.00;98857.41;4980432;28;20578;-56
2022/10/03 12:19:01;;;;;;;25.83;4.50;;;;;;;17.43;100.00;98856.03;4980743;28;20057;-56
2022/10/03 12:21:44;;;;;;;24.33;4.00;;;;;;;16.44;100.00;98856.91;4980757;28;20139;-58
2022/10/03 12:24:23;;;;;;;29.02;4.40;;;;;;;16.37;100.00;98851.94;4980815;28;20034;-59
2022/10/03 12:26:57;;;;;;;19.05;3.95;;;;;;;16.76;100.00;98857.84;4980404;28;20356;-59
2022/10/03 12:29:25;;;;;;;21.35;4.05;;;;;;;16.56;100.00;98851.00;4980258;28;20507;-58
2022/10/03 12:32:15;;;;;;;23.52;3.90;;;;;;;16.60;100.00;98852.56;4980006;28;20038;-57
2022/10/03 12:35:16;;;;;;;24.27;3.42;;;;;;;17.30;100.00;98857.66;4980519;28;20157;-59
2022/10/03 12:38:18;;;;;;;17.02;3.35;;;;;;;16.93;100.00;98859.66;4980055;28;20065;-59
2022/10/03 12:41:07;;;;;;;19.02;3.58;;;;;;;17.41;100.00;98847.34;4979632;28;20555;-60
2022/10/03 12:44:11;;;;;;;20.77;3.78;;;;;;;17.43;100.00;98842.84;4979904;28;20025;-58
2022/10/03 12:46:42;;;;;;;20.90;3.60;;;;;;;17.38;100.00;98850.16;4979821;28;20117;-58
2022/10/03 12:49:19;;;;;;;17.33;3.40;;;;;;;17.65;100.00;98836.38;4979480;28;20038;-57
2022/10/03 12:52:06;;;;;;;20.10;3.80;;;;;;;17.70;100.00;98837.81;4980226;28;20377;-58
2022/10/03 12:55:22;;;;;;;20.52;3.72;;;;;;;17.27;100.00;98837.56;4980132;28;20033;-59
2022/10/03 12:57:53;;;;;;;22.98;3.47;;;;;;;17.78;100.00;98832.09;4971190;28;20681;-57